createdAt,value
2022-09-27T00:00:09.296Z,42.83
2022-09-27T00:02:56.138Z,41.28
2022-09-27T00:05:23.322Z,41.45
2022-09-27T00:07:50.171Z,42.00
2022-09-27T00:10:17.162Z,38.88
2022-09-27T00:12:44.322Z,41.33
2022-09-27T00:15:11.664Z,41.53
2022-09-27T00:17:38.797Z,41.92
2022-09-27T00:20:06.165Z,44.28
2022-09-27T00:22:33.038Z,40.47
2022-09-27T00:24:59.973Z,42.00
2022-09-27T00:27:27.661Z,39.67
2022-09-27T00:29:54.481Z,36.95
2022-09-27T00:32:21.529Z,40.60
2022-09-27T00:34:48.580Z,40.05
2022-09-27T00:37:15.405Z,37.22
2022-09-27T00:39:42.357Z,41.42
2022-09-27T00:42:10.705Z,37.88
2022-09-27T00:44:41.309Z,37.25
2022-09-27T00:47:14.153Z,38.35
2022-09-27T00:49:43.760Z,36.28
2022-09-27T00:52:13.990Z,35.33
2022-09-27T00:54:41.615Z,35.88
2022-09-27T00:57:08.712Z,35.97
2022-09-27T00:59:37.819Z,33.67
2022-09-27T01:02:04.970Z,32.50
2022-09-27T01:04:32.224Z,33.80
2022-09-27T01:06:59.485Z,31.50
2022-09-27T01:09:26.329Z,33.20
2022-09-27T01:12:11.723Z,34.95
2022-09-27T01:14:38.883Z,29.73
2022-09-27T01:17:18.335Z,31.98
2022-09-27T01:19:45.107Z,31.17
2022-09-27T01:22:15.723Z,31.40
2022-09-27T01:25:04.659Z,27.42
2022-09-27T01:27:56.826Z,28.25
2022-09-27T01:30:27.686Z,29.02
2022-09-27T01:33:03.748Z,31.20
2022-09-27T01:35:36.832Z,30.50
2022-09-27T01:38:24.216Z,29.80
2022-09-27T01:41:09.535Z,27.15
2022-09-27T01:43:41.216Z,25.92
2022-09-27T01:46:11.987Z,27.73
2022-09-27T01:48:42.639Z,28.73
2022-09-27T01:51:37.754Z,26.23
2022-09-27T01:54:04.874Z,25.40
2022-09-27T01:56:49.859Z,27.42
2022-09-27T01:59:19.422Z,26.40
2022-09-27T02:01:48.047Z,26.60
2022-09-27T02:04:15.777Z,28.35
2022-09-27T02:06:44.889Z,23.08
2022-09-27T02:09:22.135Z,23.83
2022-09-27T02:11:55.993Z,21.63
2022-09-27T02:14:55.917Z,22.88
2022-09-27T02:18:00.173Z,25.80
2022-09-27T02:20:45.096Z,24.00
2022-09-27T02:23:17.218Z,25.48
2022-09-27T02:25:47.234Z,24.23
2022-09-27T02:28:14.377Z,22.95
2022-09-27T02:30:41.328Z,21.95
2022-09-27T02:33:08.241Z,21.50
2022-09-27T02:35:35.505Z,25.95
2022-09-27T02:38:03.214Z,23.05
2022-09-27T02:40:31.490Z,20.10
2022-09-27T02:42:58.986Z,23.95
2022-09-27T02:45:27.782Z,22.90
2022-09-27T02:48:15.938Z,20.25
2022-09-27T02:50:57.085Z,17.65
2022-09-27T02:53:42.602Z,19.38
2022-09-27T02:58:50.665Z,20.23
2022-09-27T03:01:40.089Z,20.73
2022-09-27T03:04:23.235Z,18.15
2022-09-27T03:06:50.329Z,18.40
2022-09-27T03:09:21.016Z,17.05
2022-09-27T03:11:47.853Z,20.17
2022-09-27T03:14:15.240Z,19.95
2022-09-27T03:16:42.217Z,19.23
2022-09-27T03:19:09.870Z,17.17
2022-09-27T03:21:37.466Z,20.90
2022-09-27T03:24:04.389Z,20.50
2022-09-27T03:26:31.268Z,21.02
2022-09-27T03:28:58.303Z,19.15
2022-09-27T03:31:25.373Z,19.08
2022-09-27T03:33:52.204Z,17.55
2022-09-27T03:36:19.244Z,20.15
2022-09-27T03:38:46.078Z,17.30
2022-09-27T03:41:12.932Z,18.90
2022-09-27T03:43:39.964Z,17.08
2022-09-27T03:46:06.815Z,21.90
2022-09-27T03:48:33.682Z,19.63
2022-09-27T03:51:00.791Z,19.88
2022-09-27T03:53:27.620Z,18.13
2022-09-27T03:55:54.489Z,17.38
2022-09-27T03:58:21.617Z,17.95
2022-09-27T04:00:48.443Z,18.42
2022-09-27T04:03:15.354Z,21.05
2022-09-27T04:05:42.467Z,19.10
2022-09-27T04:08:11.099Z,16.83
2022-09-27T04:10:38.043Z,17.95
2022-09-27T04:13:05.483Z,16.30
2022-09-27T04:15:32.366Z,19.15
2022-09-27T04:17:59.167Z,17.50
2022-09-27T04:20:26.259Z,18.17
2022-09-27T04:22:53.068Z,17.77
2022-09-27T04:25:19.899Z,15.50
2022-09-27T04:27:47.218Z,17.70
2022-09-27T04:30:15.318Z,16.70
2022-09-27T04:32:43.030Z,15.38
2022-09-27T04:35:29.335Z,16.83
2022-09-27T04:37:56.269Z,15.70
2022-09-27T04:40:23.780Z,15.00
2022-09-27T04:42:51.121Z,15.27
2022-09-27T04:45:18.717Z,14.40
2022-09-27T04:47:49.937Z,14.40
2022-09-27T04:50:17.496Z,12.48
2022-09-27T04:52:44.505Z,16.02
2022-09-27T04:55:11.639Z,17.58
2022-09-27T04:57:38.424Z,15.50
2022-09-27T05:00:05.888Z,16.95
2022-09-27T05:02:33.050Z,18.00
2022-09-27T05:05:00.585Z,18.33
2022-09-27T05:07:27.512Z,16.35
2022-09-27T05:09:54.603Z,19.30
2022-09-27T05:12:21.792Z,18.15
2022-09-27T05:14:48.623Z,17.55
2022-09-27T05:17:16.290Z,18.73
2022-09-27T05:19:43.191Z,16.77
2022-09-27T05:22:10.019Z,17.05
2022-09-27T05:24:38.504Z,18.95
2022-09-27T05:27:08.342Z,17.45
2022-09-27T05:29:35.272Z,18.83
2022-09-27T05:32:02.581Z,17.20
2022-09-27T05:34:29.488Z,17.00
2022-09-27T05:36:56.248Z,18.00
2022-09-27T05:39:23.283Z,16.42
2022-09-27T05:44:18.007Z,16.45
2022-09-27T05:46:46.372Z,15.98
2022-09-27T05:49:13.235Z,16.80
2022-09-27T05:51:40.031Z,17.35
2022-09-27T05:54:07.048Z,18.70
2022-09-27T05:56:33.891Z,16.40
2022-09-27T05:59:00.674Z,16.40
2022-09-27T06:01:28.263Z,16.50
2022-09-27T06:03:55.267Z,14.45
2022-09-27T06:06:23.691Z,14.07
2022-09-27T06:08:50.932Z,15.23
2022-09-27T06:11:17.853Z,16.42
2022-09-27T06:13:44.710Z,16.08
2022-09-27T06:16:12.125Z,14.48
2022-09-27T06:18:39.298Z,16.38
2022-09-27T06:21:06.425Z,15.52
2022-09-27T06:23:33.756Z,13.27
2022-09-27T06:26:05.190Z,15.98
2022-09-27T06:28:32.818Z,17.65
2022-09-27T06:31:01.213Z,17.55
2022-09-27T06:33:28.275Z,17.02
2022-09-27T06:35:55.223Z,15.63
2022-09-27T06:38:22.479Z,15.52
2022-09-27T06:40:49.473Z,18.70
2022-09-27T06:43:17.813Z,15.30
2022-09-27T06:45:44.919Z,14.25
2022-09-27T06:48:13.070Z,18.95
2022-09-27T06:50:41.062Z,15.85
2022-09-27T06:53:10.642Z,17.17
2022-09-27T06:55:38.008Z,19.70
2022-09-27T06:58:23.483Z,20.10
2022-09-27T07:03:19.911Z,15.15
2022-09-27T07:05:57.270Z,19.02
2022-09-27T07:08:27.262Z,18.63
2022-09-27T07:10:55.539Z,15.63
2022-09-27T07:13:22.543Z,16.00
2022-09-27T07:15:50.827Z,18.98
2022-09-27T07:18:17.688Z,14.85
2022-09-27T07:20:44.475Z,16.23
2022-09-27T07:23:11.875Z,14.45
2022-09-27T07:25:38.896Z,16.10
2022-09-27T07:28:07.600Z,13.75
2022-09-27T07:30:34.873Z,13.77
2022-09-27T07:33:02.585Z,17.58
2022-09-27T07:35:29.805Z,14.23
2022-09-27T07:37:57.109Z,15.75
2022-09-27T07:40:23.963Z,15.20
2022-09-27T07:42:57.804Z,15.98
2022-09-27T07:45:25.598Z,14.38
2022-09-27T07:47:52.920Z,14.82
2022-09-27T07:50:20.100Z,14.48
2022-09-27T07:52:48.439Z,14.13
2022-09-27T07:55:15.445Z,14.82
2022-09-27T07:57:42.435Z,13.63
2022-09-27T08:00:22.564Z,14.38
2022-09-27T08:02:49.364Z,14.38
2022-09-27T08:05:16.501Z,12.25
2022-09-27T08:07:43.391Z,14.50
2022-09-27T08:10:10.208Z,13.35
2022-09-27T08:12:37.483Z,14.75
2022-09-27T08:15:05.070Z,16.65
2022-09-27T08:17:32.347Z,13.57
2022-09-27T08:20:00.260Z,14.15
2022-09-27T08:22:27.043Z,13.07
2022-09-27T08:24:53.916Z,12.32
2022-09-27T08:27:20.953Z,13.50
2022-09-27T08:29:47.841Z,13.75
2022-09-27T08:32:16.383Z,13.73
2022-09-27T08:34:46.736Z,15.20
2022-09-27T08:37:13.527Z,12.65
2022-09-27T08:39:43.440Z,13.27
2022-09-27T08:42:44.813Z,12.68
2022-09-27T08:45:22.830Z,13.25
2022-09-27T08:47:55.254Z,14.60
2022-09-27T08:50:46.012Z,15.27
2022-09-27T08:53:30.457Z,12.10
2022-09-27T08:55:57.787Z,11.50
2022-09-27T08:58:36.052Z,9.00
2022-09-27T09:01:07.217Z,11.85
2022-09-27T09:03:36.551Z,13.93
2022-09-27T09:06:25.231Z,11.57
2022-09-27T09:09:04.455Z,10.25
2022-09-27T09:12:33.134Z,10.40
2022-09-27T09:15:06.147Z,10.93
2022-09-27T09:17:42.186Z,14.13
2022-09-27T09:20:40.290Z,10.52
2022-09-27T09:23:28.522Z,11.27
2022-09-27T09:26:11.865Z,17.15
2022-09-27T09:28:42.809Z,10.82
2022-09-27T09:31:15.756Z,10.65
2022-09-27T09:34:03.684Z,13.00
2022-09-27T09:36:34.516Z,12.98
2022-09-27T09:39:28.886Z,13.82
2022-09-27T09:42:02.077Z,10.07
2022-09-27T09:44:45.189Z,12.05
2022-09-27T09:47:18.720Z,11.57
2022-09-27T09:49:47.890Z,13.13
2022-09-27T09:53:11.473Z,9.70
2022-09-27T09:56:02.864Z,10.88
2022-09-27T09:58:33.513Z,9.90
2022-09-27T10:01:02.690Z,10.50
2022-09-27T10:03:29.465Z,8.65
2022-09-27T10:05:56.473Z,11.95
2022-09-27T10:08:24.254Z,9.98
2022-09-27T10:10:51.103Z,12.65
2022-09-27T10:13:19.564Z,10.15
2022-09-27T10:15:53.733Z,13.45
2022-09-27T10:18:20.726Z,10.23
2022-09-27T10:20:51.146Z,10.60
2022-09-27T10:23:21.213Z,10.10
2022-09-27T10:25:52.292Z,12.77
2022-09-27T10:28:38.138Z,10.40
2022-09-27T10:31:10.662Z,9.27
2022-09-27T10:33:38.603Z,10.63
2022-09-27T10:36:07.071Z,13.40
2022-09-27T10:38:35.068Z,10.05
2022-09-27T10:41:21.752Z,10.05
2022-09-27T10:43:48.807Z,7.63
2022-09-27T10:46:24.659Z,10.60
2022-09-27T10:49:12.999Z,10.05
2022-09-27T10:51:39.794Z,9.07
2022-09-27T10:54:18.574Z,9.35
2022-09-27T10:56:45.339Z,7.95
2022-09-27T10:59:17.843Z,8.93
2022-09-27T11:01:51.881Z,9.48
2022-09-27T11:04:33.003Z,6.95
2022-09-27T11:07:16.123Z,7.65
2022-09-27T11:09:50.935Z,10.98
2022-09-27T11:12:20.698Z,13.15
2022-09-27T11:14:59.261Z,11.40
2022-09-27T11:17:29.527Z,10.07
2022-09-27T11:20:09.029Z,10.50
2022-09-27T11:22:57.794Z,10.63
2022-09-27T11:25:33.646Z,9.20
2022-09-27T11:28:36.602Z,8.05
2022-09-27T11:31:35.189Z,8.70
2022-09-27T11:34:27.236Z,8.27
2022-09-27T11:37:06.463Z,7.30
2022-09-27T11:40:02.577Z,8.40
2022-09-27T11:42:34.366Z,7.03
2022-09-27T11:45:37.033Z,8.10
2022-09-27T11:48:31.161Z,14.38
2022-09-27T11:51:02.993Z,13.98
2022-09-27T11:54:18.579Z,15.80
2022-09-27T11:56:48.104Z,14.70
2022-09-27T11:59:37.700Z,13.15
2022-09-27T12:02:26.265Z,10.25
2022-09-27T12:05:21.190Z,11.40
2022-09-27T12:08:09.457Z,10.85
2022-09-27T12:10:37.955Z,11.00
2022-09-27T12:13:04.730Z,11.80
2022-09-27T12:15:34.875Z,10.20
2022-09-27T12:18:32.686Z,9.40
2022-09-27T12:21:01.637Z,12.77
2022-09-27T12:23:45.753Z,9.73
2022-09-27T12:26:16.308Z,12.40
2022-09-27T12:28:59.556Z,10.18
2022-09-27T12:31:37.258Z,13.50
2022-09-27T12:34:19.589Z,15.18
2022-09-27T12:37:00.751Z,12.68
2022-09-27T12:39:40.450Z,15.82
2022-09-27T12:42:33.176Z,18.27
2022-09-27T12:45:00.026Z,17.20
2022-09-27T12:47:56.511Z,18.90
2022-09-27T12:51:06.619Z,17.55
2022-09-27T12:53:52.331Z,18.98
2022-09-27T12:56:31.122Z,17.25
2022-09-27T12:59:06.827Z,14.35
2022-09-27T13:01:41.918Z,14.65
2022-09-27T13:04:37.214Z,10.00
2022-09-27T13:07:22.317Z,10.57
2022-09-27T13:10:20.785Z,10.93
2022-09-27T13:12:49.285Z,9.43
2022-09-27T13:15:32.049Z,9.48
2022-09-27T13:18:01.821Z,9.00
2022-09-27T13:20:34.839Z,8.57
2022-09-27T13:23:29.204Z,8.80
2022-09-27T13:25:59.701Z,9.38
2022-09-27T13:28:32.376Z,8.85
2022-09-27T13:31:07.567Z,8.93
2022-09-27T13:33:44.103Z,9.50
2022-09-27T13:36:17.565Z,7.82
2022-09-27T13:39:06.374Z,9.25
2022-09-27T13:41:46.437Z,8.40
2022-09-27T13:44:16.769Z,7.78
2022-09-27T13:46:57.574Z,9.13
2022-09-27T13:49:37.646Z,9.02
2022-09-27T13:52:36.151Z,8.52
2022-09-27T13:55:07.242Z,8.93
2022-09-27T13:57:40.406Z,10.25
2022-09-27T14:00:16.541Z,7.07
2022-09-27T14:03:16.827Z,7.07
2022-09-27T14:05:51.819Z,9.05
2022-09-27T14:10:48.705Z,9.30
2022-09-27T14:13:17.097Z,7.68
2022-09-27T14:15:44.195Z,10.43
2022-09-27T14:18:12.284Z,9.93
2022-09-27T14:20:41.782Z,12.43
2022-09-27T14:23:18.171Z,13.63
2022-09-27T14:25:47.294Z,12.85
2022-09-27T14:28:21.516Z,12.23
2022-09-27T14:30:48.231Z,11.73
2022-09-27T14:33:28.844Z,12.27
2022-09-27T14:36:14.287Z,10.27
2022-09-27T14:38:41.759Z,11.98
2022-09-27T14:41:08.983Z,13.23
2022-09-27T14:43:36.794Z,17.45
2022-09-27T14:46:07.917Z,14.02
2022-09-27T14:48:36.651Z,18.42
2022-09-27T14:51:07.668Z,14.77
2022-09-27T14:53:48.723Z,19.95
2022-09-27T14:56:19.974Z,18.13
2022-09-27T14:58:48.368Z,16.17
2022-09-27T15:01:20.231Z,19.58
2022-09-27T15:03:48.874Z,21.08
2022-09-27T15:06:16.644Z,16.40
2022-09-27T15:08:45.767Z,16.50
2022-09-27T15:11:12.531Z,16.88
2022-09-27T15:13:42.062Z,16.27
2022-09-27T15:16:10.625Z,22.35
2022-09-27T15:18:45.346Z,18.02
2022-09-27T15:21:14.759Z,21.08
2022-09-27T15:23:45.056Z,17.08
2022-09-27T15:26:14.909Z,17.83
2022-09-27T15:28:46.296Z,18.85
2022-09-27T15:31:13.607Z,18.23
2022-09-27T15:33:40.799Z,18.70
2022-09-27T15:36:09.337Z,18.73
2022-09-27T15:38:40.629Z,18.33
2022-09-27T15:41:21.286Z,20.73
2022-09-27T15:43:50.159Z,24.27
2022-09-27T15:46:49.331Z,22.73
2022-09-27T15:49:33.756Z,23.23
2022-09-27T15:52:02.243Z,20.00
2022-09-27T15:54:30.483Z,26.88
2022-09-27T15:57:00.332Z,29.40
2022-09-27T15:59:28.619Z,22.88
2022-09-27T16:01:57.200Z,21.75
2022-09-27T16:04:31.206Z,25.80
2022-09-27T16:07:00.880Z,24.90
2022-09-27T16:09:27.755Z,34.72
2022-09-27T16:11:54.656Z,22.52
2022-09-27T16:14:21.683Z,27.00
2022-09-27T16:16:53.147Z,22.80
2022-09-27T16:19:20.148Z,28.55
2022-09-27T16:21:48.388Z,24.95
2022-09-27T16:24:16.091Z,24.67
2022-09-27T16:26:43.115Z,25.15
2022-09-27T16:29:14.157Z,26.48
2022-09-27T16:31:41.339Z,23.67
2022-09-27T16:34:09.631Z,25.50
2022-09-27T16:36:37.436Z,22.05
2022-09-27T16:39:07.487Z,21.95
2022-09-27T16:41:34.899Z,27.23
2022-09-27T16:44:09.207Z,22.38
2022-09-27T16:46:36.189Z,22.13
2022-09-27T16:49:03.323Z,20.83
2022-09-27T16:51:48.842Z,18.40
2022-09-27T16:56:43.026Z,19.75
2022-09-27T16:59:09.902Z,24.30
2022-09-27T17:01:36.962Z,23.85
2022-09-27T17:04:04.190Z,26.35
2022-09-27T17:06:34.671Z,32.83
2022-09-27T17:09:02.990Z,42.10
2022-09-27T17:11:29.981Z,42.25
2022-09-27T17:13:56.865Z,42.67
2022-09-27T17:16:24.212Z,46.53
2022-09-27T17:18:51.106Z,50.20
2022-09-27T17:21:18.054Z,47.40
2022-09-27T17:23:45.086Z,44.88
2022-09-27T17:26:17.843Z,50.20
2022-09-27T17:28:44.953Z,45.38
2022-09-27T17:31:15.328Z,48.17
2022-09-27T17:33:45.177Z,44.05
2022-09-27T17:36:23.653Z,45.75
2022-09-27T17:38:51.330Z,43.40
2022-09-27T17:41:20.607Z,38.53
2022-09-27T17:43:50.366Z,38.10
2022-09-27T17:46:19.859Z,35.55
2022-09-27T17:49:05.492Z,34.72
2022-09-27T17:51:33.619Z,34.55
2022-09-27T17:54:00.439Z,32.40
2022-09-27T17:56:27.393Z,42.20
2022-09-27T17:58:55.292Z,34.55
2022-09-27T18:01:23.141Z,34.10
2022-09-27T18:03:52.963Z,35.15
2022-09-27T18:06:20.108Z,28.67
2022-09-27T18:08:46.893Z,31.98
2022-09-27T18:11:15.453Z,30.02
2022-09-27T18:13:42.779Z,27.38
2022-09-27T18:16:14.289Z,30.13
2022-09-27T18:18:42.243Z,28.13
2022-09-27T18:21:11.607Z,29.35
2022-09-27T18:23:38.503Z,27.92
2022-09-27T18:26:08.770Z,21.08
2022-09-27T18:28:36.686Z,25.08
2022-09-27T18:31:16.614Z,21.58
2022-09-27T18:33:43.681Z,19.48
2022-09-27T18:36:19.305Z,20.15
2022-09-27T18:38:47.317Z,18.23
2022-09-27T18:41:17.868Z,19.20
2022-09-27T18:43:45.267Z,19.10
2022-09-27T18:46:34.953Z,18.33
2022-09-27T18:49:03.851Z,18.58
2022-09-27T18:51:31.027Z,16.73
2022-09-27T18:54:05.676Z,14.93
2022-09-27T18:56:39.299Z,14.27
2022-09-27T18:59:08.618Z,16.40
2022-09-27T19:01:41.663Z,15.57
2022-09-27T19:04:09.261Z,15.70
2022-09-27T19:06:36.743Z,16.52
2022-09-27T19:09:04.650Z,15.55
2022-09-27T19:11:31.898Z,16.25
2022-09-27T19:13:58.984Z,13.40
2022-09-27T19:16:26.561Z,15.77
2022-09-27T19:18:53.507Z,16.02
2022-09-27T19:21:22.275Z,12.20
2022-09-27T19:23:49.878Z,13.95
2022-09-27T19:26:18.284Z,14.32
2022-09-27T19:28:45.610Z,14.10
2022-09-27T19:31:14.044Z,13.27
2022-09-27T19:33:40.963Z,12.68
2022-09-27T19:36:09.907Z,13.07
2022-09-27T19:38:37.338Z,13.18
2022-09-27T19:41:05.294Z,13.70
2022-09-27T19:43:32.435Z,12.57
2022-09-27T19:46:06.360Z,13.32
2022-09-27T19:48:33.531Z,14.65
2022-09-27T19:51:00.874Z,12.65
2022-09-27T19:53:31.926Z,13.23
2022-09-27T19:56:03.005Z,12.45
2022-09-27T19:58:30.319Z,11.68
2022-09-27T20:01:01.473Z,12.90
2022-09-27T20:03:29.027Z,14.15
2022-09-27T20:05:55.988Z,13.00
2022-09-27T20:08:23.266Z,12.65
2022-09-27T20:10:58.727Z,12.95
2022-09-27T20:13:28.203Z,13.82
2022-09-27T20:16:10.603Z,15.18
2022-09-27T20:18:45.329Z,15.82
2022-09-27T20:21:12.477Z,12.40
2022-09-27T20:23:39.524Z,13.30
2022-09-27T20:26:08.080Z,15.77
2022-09-27T20:28:45.421Z,12.68
2022-09-27T20:31:13.773Z,11.55
2022-09-27T20:33:46.995Z,13.57
2022-09-27T20:36:18.770Z,12.52
2022-09-27T20:39:01.234Z,13.07
2022-09-27T20:41:31.135Z,13.77
2022-09-27T20:44:00.339Z,12.23
2022-09-27T20:46:27.335Z,16.38
2022-09-27T20:48:59.061Z,14.57
2022-09-27T20:51:27.073Z,12.77
2022-09-27T20:53:54.066Z,13.35
2022-09-27T20:56:26.660Z,13.70
2022-09-27T20:58:55.418Z,14.10
2022-09-27T21:01:22.845Z,14.73
2022-09-27T21:03:53.775Z,13.65
2022-09-27T21:06:22.960Z,14.27
2022-09-27T21:08:50.578Z,11.65
2022-09-27T21:11:17.889Z,13.77
2022-09-27T21:13:45.561Z,12.95
2022-09-27T21:16:24.215Z,12.57
2022-09-27T21:18:55.120Z,12.88
2022-09-27T21:21:22.997Z,12.48
2022-09-27T21:24:00.378Z,13.57
2022-09-27T21:26:31.972Z,13.25
2022-09-27T21:29:00.540Z,13.88
2022-09-27T21:31:32.054Z,14.57
2022-09-27T21:34:00.653Z,12.73
2022-09-27T21:36:29.103Z,11.07
2022-09-27T21:38:56.160Z,14.57
2022-09-27T21:41:24.029Z,13.70
2022-09-27T21:43:51.132Z,13.27
2022-09-27T21:46:18.968Z,15.13
2022-09-27T21:48:47.740Z,17.35
2022-09-27T21:51:16.318Z,16.90
2022-09-27T21:53:44.370Z,16.40
2022-09-27T21:56:11.480Z,18.27
2022-09-27T21:58:39.598Z,19.23
2022-09-27T22:01:15.038Z,28.25
2022-09-27T22:03:49.757Z,19.80
2022-09-27T22:06:24.861Z,21.35
2022-09-27T22:08:52.056Z,20.02
2022-09-27T22:11:20.866Z,18.20
2022-09-27T22:13:47.750Z,15.07
2022-09-27T22:16:16.419Z,17.88
2022-09-27T22:18:47.251Z,17.13
2022-09-27T22:21:15.790Z,18.48
2022-09-27T22:23:43.059Z,17.20
2022-09-27T22:26:13.718Z,17.70
2022-09-27T22:28:40.929Z,15.45
2022-09-27T22:31:08.533Z,16.52
2022-09-27T22:33:35.538Z,15.73
2022-09-27T22:36:02.497Z,15.82
2022-09-27T22:38:30.570Z,16.08
2022-09-27T22:40:58.685Z,18.73
2022-09-27T22:43:26.293Z,12.40
2022-09-27T22:45:53.378Z,15.25
2022-09-27T22:48:20.189Z,13.45
2022-09-27T22:50:46.962Z,15.90
2022-09-27T22:53:14.085Z,15.10
2022-09-27T22:55:41.069Z,14.70
2022-09-27T22:58:07.821Z,14.68
2022-09-27T23:00:34.954Z,14.73
2022-09-27T23:03:01.836Z,14.38
2022-09-27T23:05:28.694Z,14.68
2022-09-27T23:07:55.755Z,14.63
2022-09-27T23:10:23.451Z,12.73
2022-09-27T23:12:53.039Z,14.15
2022-09-27T23:15:20.066Z,20.30
2022-09-27T23:17:50.412Z,12.93
2022-09-27T23:20:17.400Z,17.88
2022-09-27T23:22:45.023Z,17.58
2022-09-27T23:25:11.779Z,17.20
2022-09-27T23:27:47.703Z,20.65
2022-09-27T23:30:15.342Z,20.52
2022-09-27T23:32:45.860Z,17.95
2022-09-27T23:35:13.170Z,17.77
2022-09-27T23:37:40.768Z,19.30
2022-09-27T23:40:08.879Z,18.42
2022-09-27T23:42:35.905Z,19.27
2022-09-27T23:45:02.992Z,21.20
2022-09-27T23:47:29.878Z,17.55
2022-09-27T23:49:58.314Z,17.95
2022-09-27T23:52:25.454Z,18.90
2022-09-27T23:54:52.735Z,16.30
2022-09-27T23:57:19.575Z,16.60
2022-09-27T23:59:46.551Z,17.95
